sensor_id;sensor_type;location;lat;lon;timestamp;pressure;altitude;pressure_sealevel;temperature;humidity
54270;BME280;40181;51.560;13.000;2023-10-09T00:00:32;101246.22;;;12.35;91.78
54270;BME280;40181;51.560;13.000;2023-10-09T00:03:17;101248.88;;;12.37;91.58
54270;BME280;40181;51.560;13.000;2023-10-09T00:05:51;101234.69;;;12.28;91.61
54270;BME280;40181;51.560;13.000;2023-10-09T00:08:21;101213.88;;;11.95;93.92
54270;BME280;40181;51.560;13.000;2023-10-09T00:10:56;101212.19;;;11.98;94.12
54270;BME280;40181;51.560;13.000;2023-10-09T00:13:39;101212.59;;;11.74;94.99
54270;BME280;40181;51.560;13.000;2023-10-09T00:16:14;101202.41;;;11.91;94.97
54270;BME280;40181;51.560;13.000;2023-10-09T00:18:48;101193.16;;;12.12;94.97
54270;BME280;40181;51.560;13.000;2023-10-09T00:21:21;101223.19;;;12.23;94.22
54270;BME280;40181;51.560;13.000;2023-10-09T00:23:53;101243.66;;;12.40;94.50
54270;BME280;40181;51.560;13.000;2023-10-09T00:26:24;101257.50;;;12.26;95.89
54270;BME280;40181;51.560;13.000;2023-10-09T00:28:56;101247.19;;;12.40;94.59
54270;BME280;40181;51.560;13.000;2023-10-09T00:31:30;101254.19;;;12.38;94.13
54270;BME280;40181;51.560;13.000;2023-10-09T00:33:59;101254.78;;;12.22;94.31
54270;BME280;40181;51.560;13.000;2023-10-09T00:36:47;101265.50;;;12.32;94.75
54270;BME280;40181;51.560;13.000;2023-10-09T00:39:20;101255.25;;;12.50;93.99
54270;BME280;40181;51.560;13.000;2023-10-09T00:42:08;101263.25;;;12.56;93.53
54270;BME280;40181;51.560;13.000;2023-10-09T00:44:38;101247.50;;;12.59;93.70
54270;BME280;40181;51.560;13.000;2023-10-09T00:47:09;101240.47;;;12.59;94.34
54270;BME280;40181;51.560;13.000;2023-10-09T00:49:56;101212.19;;;12.48;94.82
54270;BME280;40181;51.560;13.000;2023-10-09T00:52:37;101219.13;;;12.42;95.26
54270;BME280;40181;51.560;13.000;2023-10-09T00:55:10;101211.19;;;12.39;96.27
54270;BME280;40181;51.560;13.000;2023-10-09T00:57:48;101209.38;;;12.37;96.62
54270;BME280;40181;51.560;13.000;2023-10-09T01:00:23;101206.69;;;12.34;96.53
54270;BME280;40181;51.560;13.000;2023-10-09T01:03:11;101190.78;;;12.27;97.67
54270;BME280;40181;51.560;13.000;2023-10-09T01:05:45;101188.91;;;12.20;97.93
54270;BME280;40181;51.560;13.000;2023-10-09T01:08:26;101196.97;;;12.31;98.01
54270;BME280;40181;51.560;13.000;2023-10-09T01:11:10;101174.94;;;12.26;97.72
54270;BME280;40181;51.560;13.000;2023-10-09T01:13:45;101180.16;;;12.23;97.69
54270;BME280;40181;51.560;13.000;2023-10-09T01:16:25;101181.97;;;12.25;96.90
54270;BME280;40181;51.560;13.000;2023-10-09T01:18:56;101165.06;;;12.14;97.92
54270;BME280;40181;51.560;13.000;2023-10-09T01:21:31;101158.88;;;12.09;97.10
54270;BME280;40181;51.560;13.000;2023-10-09T01:24:03;101144.84;;;12.10;96.44
54270;BME280;40181;51.560;13.000;2023-10-09T01:26:35;101140.47;;;12.12;95.97
54270;BME280;40181;51.560;13.000;2023-10-09T01:29:10;101137.50;;;11.93;96.40
54270;BME280;40181;51.560;13.000;2023-10-09T01:31:43;101116.44;;;11.93;96.88
54270;BME280;40181;51.560;13.000;2023-10-09T01:34:18;101119.66;;;11.75;97.83
54270;BME280;40181;51.560;13.000;2023-10-09T01:36:50;101117.22;;;11.87;97.36
54270;BME280;40181;51.560;13.000;2023-10-09T01:39:24;101107.59;;;11.89;97.59
54270;BME280;40181;51.560;13.000;2023-10-09T01:41:54;101096.44;;;12.04;96.77
54270;BME280;40181;51.560;13.000;2023-10-09T01:44:31;101097.88;;;11.87;98.30
54270;BME280;40181;51.560;13.000;2023-10-09T01:47:09;101085.66;;;11.90;97.46
54270;BME280;40181;51.560;13.000;2023-10-09T01:49:39;101080.44;;;11.92;96.95
54270;BME280;40181;51.560;13.000;2023-10-09T01:52:10;101057.59;;;11.91;97.27
54270;BME280;40181;51.560;13.000;2023-10-09T01:54:44;101069.97;;;11.97;97.12
54270;BME280;40181;51.560;13.000;2023-10-09T01:57:16;101057.75;;;12.00;97.66
54270;BME280;40181;51.560;13.000;2023-10-09T01:59:49;101060.25;;;11.93;97.50
54270;BME280;40181;51.560;13.000;2023-10-09T02:02:20;101062.03;;;11.95;97.92
54270;BME280;40181;51.560;13.000;2023-10-09T02:05:00;101060.09;;;11.82;97.76
54270;BME280;40181;51.560;13.000;2023-10-09T02:07:50;101048.47;;;11.69;98.20
54270;BME280;40181;51.560;13.000;2023-10-09T02:10:23;101036.88;;;11.57;98.42
54270;BME280;40181;51.560;13.000;2023-10-09T02:13:04;101033.47;;;11.65;97.93
54270;BME280;40181;51.560;13.000;2023-10-09T02:15:38;101021.44;;;11.79;97.35
54270;BME280;40181;51.560;13.000;2023-10-09T02:18:18;101007.38;;;11.77;97.83
54270;BME280;40181;51.560;13.000;2023-10-09T02:21:06;100996.41;;;11.51;98.03
54270;BME280;40181;51.560;13.000;2023-10-09T02:23:54;100980.13;;;11.73;98.14
54270;BME280;40181;51.560;13.000;2023-10-09T02:26:32;100975.44;;;11.54;99.71
54270;BME280;40181;51.560;13.000;2023-10-09T02:29:27;100982.88;;;11.83;98.10
54270;BME280;40181;51.560;13.000;2023-10-09T02:32:00;100980.13;;;11.73;98.31
54270;BME280;40181;51.560;13.000;2023-10-09T02:34:39;100987.84;;;11.62;98.59
54270;BME280;40181;51.560;13.000;2023-10-09T02:37:11;100964.06;;;11.58;98.74
54270;BME280;40181;51.560;13.000;2023-10-09T02:39:48;100953.97;;;11.29;99.38
54270;BME280;40181;51.560;13.000;2023-10-09T02:42:20;100955.25;;;11.54;99.49
54270;BME280;40181;51.560;13.000;2023-10-09T02:44:53;100937.03;;;11.67;98.95
54270;BME280;40181;51.560;13.000;2023-10-09T02:47:24;100935.97;;;11.54;99.15
54270;BME280;40181;51.560;13.000;2023-10-09T02:49:54;100920.25;;;11.60;98.37
54270;BME280;40181;51.560;13.000;2023-10-09T02:52:31;100915.84;;;11.57;98.47
54270;BME280;40181;51.560;13.000;2023-10-09T02:55:06;100922.94;;;11.63;98.13
54270;BME280;40181;51.560;13.000;2023-10-09T02:57:42;100921.94;;;11.56;98.09
54270;BME280;40181;51.560;13.000;2023-10-09T03:00:17;100924.59;;;11.58;97.50
54270;BME280;40181;51.560;13.000;2023-10-09T03:02:54;100930.16;;;11.76;97.85
54270;BME280;40181;51.560;13.000;2023-10-09T03:05:24;100938.38;;;11.41;98.11
54270;BME280;40181;51.560;13.000;2023-10-09T03:07:55;100938.03;;;11.75;98.08
54270;BME280;40181;51.560;13.000;2023-10-09T03:10:24;100946.97;;;11.86;97.40
54270;BME280;40181;51.560;13.000;2023-10-09T03:12:56;100924.97;;;11.83;97.19
54270;BME280;40181;51.560;13.000;2023-10-09T03:15:28;100910.78;;;11.71;98.20
54270;BME280;40181;51.560;13.000;2023-10-09T03:18:01;100905.53;;;11.71;98.61
54270;BME280;40181;51.560;13.000;2023-10-09T03:20:30;100911.00;;;11.88;98.33
54270;BME280;40181;51.560;13.000;2023-10-09T03:22:59;100930.41;;;11.95;97.78
54270;BME280;40181;51.560;13.000;2023-10-09T03:25:29;100930.50;;;12.01;97.99
54270;BME280;40181;51.560;13.000;2023-10-09T03:28:00;100933.00;;;11.92;98.57
54270;BME280;40181;51.560;13.000;2023-10-09T03:30:30;100925.06;;;11.89;97.98
54270;BME280;40181;51.560;13.000;2023-10-09T03:32:59;100918.06;;;11.93;98.17
54270;BME280;40181;51.560;13.000;2023-10-09T03:35:29;100915.63;;;12.03;97.88
54270;BME280;40181;51.560;13.000;2023-10-09T03:38:00;100933.25;;;12.09;98.64
54270;BME280;40181;51.560;13.000;2023-10-09T03:40:37;100933.91;;;11.94;98.21
54270;BME280;40181;51.560;13.000;2023-10-09T03:43:11;100930.34;;;11.89;98.67
54270;BME280;40181;51.560;13.000;2023-10-09T03:45:40;100939.91;;;11.84;99.16
54270;BME280;40181;51.560;13.000;2023-10-09T03:48:17;100934.69;;;11.88;99.11
54270;BME280;40181;51.560;13.000;2023-10-09T03:50:51;100947.97;;;11.95;99.50
54270;BME280;40181;51.560;13.000;2023-10-09T03:53:34;100942.56;;;11.85;99.59
54270;BME280;40181;51.560;13.000;2023-10-09T03:56:04;100918.88;;;11.85;99.65
54270;BME280;40181;51.560;13.000;2023-10-09T03:58:40;100902.69;;;11.59;100.00
54270;BME280;40181;51.560;13.000;2023-10-09T04:01:12;100866.56;;;11.47;100.00
54270;BME280;40181;51.560;13.000;2023-10-09T04:03:49;100864.84;;;11.51;100.00
54270;BME280;40181;51.560;13.000;2023-10-09T04:06:20;100853.50;;;11.53;100.00
54270;BME280;40181;51.560;13.000;2023-10-09T04:08:54;100855.03;;;11.39;100.00
54270;BME280;40181;51.560;13.000;2023-10-09T04:11:24;100839.19;;;11.34;100.00
54270;BME280;40181;51.560;13.000;2023-10-09T04:13:56;100838.34;;;11.35;100.00
54270;BME280;40181;51.560;13.000;2023-10-09T04:16:26;100820.06;;;11.46;100.00
54270;BME280;40181;51.560;13.000;2023-10-09T04:19:16;100824.19;;;11.28;100.00
54270;BME280;40181;51.560;13.000;2023-10-09T04:21:47;100821.94;;;11.53;100.00
54270;BME280;40181;51.560;13.000;2023-10-09T04:24:14;100806.84;;;11.40;100.00
54270;BME280;40181;51.560;13.000;2023-10-09T04:26:52;100801.50;;;11.33;100.00
54270;BME280;40181;51.560;13.000;2023-10-09T04:29:30;100787.94;;;11.07;100.00
54270;BME280;40181;51.560;13.000;2023-10-09T04:32:09;100775.66;;;11.06;100.00
54270;BME280;40181;51.560;13.000;2023-10-09T04:34:41;100769.44;;;10.99;100.00
54270;BME280;40181;51.560;13.000;2023-10-09T04:37:14;100768.88;;;11.20;100.00
54270;BME280;40181;51.560;13.000;2023-10-09T04:40:02;100761.75;;;11.13;100.00
54270;BME280;40181;51.560;13.000;2023-10-09T04:42:59;100764.34;;;11.12;100.00
54270;BME280;40181;51.560;13.000;2023-10-09T04:45:35;100760.31;;;11.35;100.00
54270;BME280;40181;51.560;13.000;2023-10-09T04:48:17;100753.19;;;11.27;100.00
54270;BME280;40181;51.560;13.000;2023-10-09T04:50:58;100747.84;;;11.20;100.00
54270;BME280;40181;51.560;13.000;2023-10-09T04:53:57;100743.09;;;10.95;100.00
54270;BME280;40181;51.560;13.000;2023-10-09T04:56:38;100754.69;;;11.11;100.00
54270;BME280;40181;51.560;13.000;2023-10-09T04:59:17;100744.66;;;11.46;100.00
54270;BME280;40181;51.560;13.000;2023-10-09T05:01:52;100747.34;;;11.48;100.00
54270;BME280;40181;51.560;13.000;2023-10-09T05:04:30;100735.81;;;11.38;100.00
54270;BME280;40181;51.560;13.000;2023-10-09T05:07:05;100726.44;;;11.60;100.00
54270;BME280;40181;51.560;13.000;2023-10-09T05:09:47;100736.91;;;11.56;100.00
54270;BME280;40181;51.560;13.000;2023-10-09T05:12:40;100743.09;;;11.62;100.00
54270;BME280;40181;51.560;13.000;2023-10-09T05:15:12;100750.72;;;11.39;100.00
54270;BME280;40181;51.560;13.000;2023-10-09T05:17:44;100752.31;;;11.28;100.00
54270;BME280;40181;51.560;13.000;2023-10-09T05:20:21;100757.88;;;11.51;100.00
54270;BME280;40181;51.560;13.000;2023-10-09T05:23:03;100771.00;;;11.48;100.00
54270;BME280;40181;51.560;13.000;2023-10-09T05:25:49;100764.69;;;11.35;100.00
54270;BME280;40181;51.560;13.000;2023-10-09T05:28:18;100755.06;;;11.39;100.00
54270;BME280;40181;51.560;13.000;2023-10-09T05:30:56;100755.06;;;11.37;100.00
54270;BME280;40181;51.560;13.000;2023-10-09T05:33:36;100761.44;;;11.56;100.00
54270;BME280;40181;51.560;13.000;2023-10-09T05:36:10;100738.47;;;11.41;100.00
54270;BME280;40181;51.560;13.000;2023-10-09T05:38:57;100730.25;;;11.18;100.00
54270;BME280;40181;51.560;13.000;2023-10-09T05:41:41;100738.25;;;11.24;100.00
54270;BME280;40181;51.560;13.000;2023-10-09T05:44:20;100739.31;;;11.40;100.00
54270;BME280;40181;51.560;13.000;2023-10-09T05:47:02;100737.69;;;11.52;100.00
54270;BME280;40181;51.560;13.000;2023-10-09T05:49:47;100722.44;;;11.21;100.00
54270;BME280;40181;51.560;13.000;2023-10-09T05:52:29;100712.81;;;11.23;100.00
54270;BME280;40181;51.560;13.000;2023-10-09T05:55:18;100715.97;;;10.97;100.00
54270;BME280;40181;51.560;13.000;2023-10-09T05:58:08;100732.66;;;11.01;100.00
54270;BME280;40181;51.560;13.000;2023-10-09T06:00:58;100730.22;;;11.16;100.00
54270;BME280;40181;51.560;13.000;2023-10-09T06:03:46;100752.53;;;11.45;100.00
54270;BME280;40181;51.560;13.000;2023-10-09T06:06:32;100735.06;;;11.50;100.00
54270;BME280;40181;51.560;13.000;2023-10-09T06:09:08;100739.97;;;11.22;100.00
54270;BME280;40181;51.560;13.000;2023-10-09T06:11:50;100746.47;;;11.49;100.00
54270;BME280;40181;51.560;13.000;2023-10-09T06:14:43;100758.97;;;11.70;100.00
54270;BME280;40181;51.560;13.000;2023-10-09T06:17:15;100743.38;;;11.86;100.00
54270;BME280;40181;51.560;13.000;2023-10-09T06:19:52;100743.50;;;11.97;100.00
54270;BME280;40181;51.560;13.000;2023-10-09T06:22:27;100741.72;;;11.94;100.00
54270;BME280;40181;51.560;13.000;2023-10-09T06:25:11;100769.75;;;11.90;100.00
54270;BME280;40181;51.560;13.000;2023-10-09T06:27:44;100765.59;;;12.10;100.00
54270;BME280;40181;51.560;13.000;2023-10-09T06:30:26;100778.75;;;12.08;100.00
54270;BME280;40181;51.560;13.000;2023-10-09T06:32:58;100773.53;;;12.11;100.00
54270;BME280;40181;51.560;13.000;2023-10-09T06:35:45;100793.69;;;12.09;100.00
54270;BME280;40181;51.560;13.000;2023-10-09T06:38:21;100788.41;;;12.09;100.00
54270;BME280;40181;51.560;13.000;2023-10-09T06:41:05;100789.38;;;12.16;100.00
54270;BME280;40181;51.560;13.000;2023-10-09T06:44:00;100785.78;;;12.09;100.00
54270;BME280;40181;51.560;13.000;2023-10-09T06:46:31;100785.78;;;12.08;100.00
54270;BME280;40181;51.560;13.000;2023-10-09T06:49:17;100791.97;;;12.11;100.00
54270;BME280;40181;51.560;13.000;2023-10-09T06:51:58;100792.94;;;12.21;100.00
54270;BME280;40181;51.560;13.000;2023-10-09T06:54:43;100792.88;;;12.13;100.00
54270;BME280;40181;51.560;13.000;2023-10-09T06:57:17;100792.09;;;12.24;100.00
54270;BME280;40181;51.560;13.000;2023-10-09T06:59:59;100796.47;;;12.25;100.00
54270;BME280;40181;51.560;13.000;2023-10-09T07:02:40;100791.16;;;12.17;100.00
54270;BME280;40181;51.560;13.000;2023-10-09T07:05:14;100800.88;;;12.26;100.00
54270;BME280;40181;51.560;13.000;2023-10-09T07:07:43;100809.69;;;12.28;100.00
54270;BME280;40181;51.560;13.000;2023-10-09T07:10:23;100797.38;;;12.27;100.00
54270;BME280;40181;51.560;13.000;2023-10-09T07:12:59;100807.13;;;12.36;100.00
54270;BME280;40181;51.560;13.000;2023-10-09T07:15:27;100795.75;;;12.38;100.00
54270;BME280;40181;51.560;13.000;2023-10-09T07:18:09;100815.00;;;12.31;100.00
54270;BME280;40181;51.560;13.000;2023-10-09T07:20:49;100817.66;;;12.37;100.00
54270;BME280;40181;51.560;13.000;2023-10-09T07:23:36;100830.78;;;12.29;100.00
54270;BME280;40181;51.560;13.000;2023-10-09T07:26:16;100824.59;;;12.26;100.00
54270;BME280;40181;51.560;13.000;2023-10-09T07:28:48;100818.41;;;12.22;100.00
54270;BME280;40181;51.560;13.000;2023-10-09T07:31:26;100816.69;;;12.26;100.00
54270;BME280;40181;51.560;13.000;2023-10-09T07:34:04;100800.69;;;12.07;100.00
54270;BME280;40181;51.560;13.000;2023-10-09T07:36:55;100794.63;;;12.14;100.00
54270;BME280;40181;51.560;13.000;2023-10-09T07:39:30;100812.22;;;12.17;100.00
54270;BME280;40181;51.560;13.000;2023-10-09T07:42:06;100812.34;;;12.32;100.00
54270;BME280;40181;51.560;13.000;2023-10-09T07:44:52;100829.91;;;12.30;100.00
54270;BME280;40181;51.560;13.000;2023-10-09T07:47:22;100839.53;;;12.27;100.00
54270;BME280;40181;51.560;13.000;2023-10-09T07:49:53;100842.94;;;12.20;100.00
54270;BME280;40181;51.560;13.000;2023-10-09T07:52:24;100840.31;;;12.20;100.00
54270;BME280;40181;51.560;13.000;2023-10-09T07:54:54;100833.31;;;12.20;100.00
54270;BME280;40181;51.560;13.000;2023-10-09T07:57:34;100829.94;;;12.35;100.00
54270;BME280;40181;51.560;13.000;2023-10-09T08:00:08;100833.50;;;12.39;100.00
54270;BME280;40181;51.560;13.000;2023-10-09T08:02:53;100836.97;;;12.33;100.00
54270;BME280;40181;51.560;13.000;2023-10-09T08:05:25;100832.28;;;12.07;100.00
54270;BME280;40181;51.560;13.000;2023-10-09T08:07:59;100848.94;;;12.03;100.00
54270;BME280;40181;51.560;13.000;2023-10-09T08:11:07;100863.19;;;12.22;100.00
54270;BME280;40181;51.560;13.000;2023-10-09T08:13:51;100858.66;;;12.10;100.00
54270;BME280;40181;51.560;13.000;2023-10-09T08:16:28;100849.78;;;12.03;100.00
54270;BME280;40181;51.560;13.000;2023-10-09T08:19:08;100846.28;;;12.03;100.00
54270;BME280;40181;51.560;13.000;2023-10-09T08:21:57;100818.84;;;11.85;100.00
54270;BME280;40181;51.560;13.000;2023-10-09T08:25:05;100839.31;;;12.08;100.00
54270;BME280;40181;51.560;13.000;2023-10-09T08:27:32;100831.31;;;12.00;100.00
54270;BME280;40181;51.560;13.000;2023-10-09T08:30:23;100831.47;;;12.11;100.00
54270;BME280;40181;51.560;13.000;2023-10-09T08:33:11;100830.44;;;12.01;100.00
54270;BME280;40181;51.560;13.000;2023-10-09T08:35:54;100839.44;;;12.19;100.00
54270;BME280;40181;51.560;13.000;2023-10-09T08:38:27;100838.69;;;12.29;100.00
54270;BME280;40181;51.560;13.000;2023-10-09T08:41:06;100848.28;;;12.26;100.00
54270;BME280;40181;51.560;13.000;2023-10-09T08:43:50;100849.13;;;12.20;100.00
54270;BME280;40181;51.560;13.000;2023-10-09T08:46:24;100853.72;;;12.40;100.00
54270;BME280;40181;51.560;13.000;2023-10-09T08:48:55;100840.22;;;12.09;100.00
54270;BME280;40181;51.560;13.000;2023-10-09T08:51:26;100832.41;;;12.20;100.00
54270;BME280;40181;51.560;13.000;2023-10-09T08:53:56;100825.31;;;12.14;100.00
54270;BME280;40181;51.560;13.000;2023-10-09T08:56:25;100813.03;;;12.13;100.00
54270;BME280;40181;51.560;13.000;2023-10-09T08:58:57;100814.06;;;12.29;100.00
54270;BME280;40181;51.560;13.000;2023-10-09T09:01:29;100832.47;;;12.24;100.00
54270;BME280;40181;51.560;13.000;2023-10-09T09:03:59;100834.16;;;12.17;100.00
54270;BME280;40181;51.560;13.000;2023-10-09T09:06:36;100801.69;;;12.18;100.00
54270;BME280;40181;51.560;13.000;2023-10-09T09:09:12;100800.91;;;12.29;100.00
54270;BME280;40181;51.560;13.000;2023-10-09T09:11:42;100807.16;;;12.39;100.00
54270;BME280;40181;51.560;13.000;2023-10-09T09:14:18;100796.56;;;12.34;100.00
54270;BME280;40181;51.560;13.000;2023-10-09T09:16:50;100810.69;;;12.41;100.00
54270;BME280;40181;51.560;13.000;2023-10-09T09:19:30;100814.38;;;12.60;100.00
54270;BME280;40181;51.560;13.000;2023-10-09T09:22:03;100824.03;;;12.56;100.00
54270;BME280;40181;51.560;13.000;2023-10-09T09:24:40;100836.13;;;12.39;100.00
54270;BME280;40181;51.560;13.000;2023-10-09T09:27:43;100844.97;;;12.45;100.00
54270;BME280;40181;51.560;13.000;2023-10-09T09:30:22;100847.06;;;11.99;100.00
54270;BME280;40181;51.560;13.000;2023-10-09T09:33:16;100836.00;;;12.28;100.00
54270;BME280;40181;51.560;13.000;2023-10-09T09:35:58;100831.88;;;12.52;100.00
54270;BME280;40181;51.560;13.000;2023-10-09T09:38:31;100830.94;;;12.47;100.00
54270;BME280;40181;51.560;13.000;2023-10-09T09:41:13;100826.63;;;12.53;100.00
54270;BME280;40181;51.560;13.000;2023-10-09T09:43:55;100828.34;;;12.51;100.00
54270;BME280;40181;51.560;13.000;2023-10-09T09:46:26;100830.13;;;12.52;100.00
54270;BME280;40181;51.560;13.000;2023-10-09T09:49:03;100831.75;;;12.38;100.00
54270;BME280;40181;51.560;13.000;2023-10-09T09:51:41;100824.03;;;12.58;100.00
54270;BME280;40181;51.560;13.000;2023-10-09T09:54:12;100823.22;;;12.64;100.00
54270;BME280;40181;51.560;13.000;2023-10-09T09:56:44;100810.84;;;12.59;100.00
54270;BME280;40181;51.560;13.000;2023-10-09T09:59:17;100818.81;;;12.63;100.00
54270;BME280;40181;51.560;13.000;2023-10-09T10:01:54;100819.88;;;12.86;100.00
54270;BME280;40181;51.560;13.000;2023-10-09T10:04:36;100830.41;;;12.83;100.00
54270;BME280;40181;51.560;13.000;2023-10-09T10:30:31;100796.28;;;13.04;100.00
54270;BME280;40181;51.560;13.000;2023-10-09T10:33:03;100799.81;;;13.03;100.00
54270;BME280;40181;51.560;13.000;2023-10-09T10:35:41;100800.72;;;13.06;100.00
54270;BME280;40181;51.560;13.000;2023-10-09T10:38:27;100788.44;;;13.16;100.00
54270;BME280;40181;51.560;13.000;2023-10-09T10:41:16;100777.09;;;13.28;100.00
54270;BME280;40181;51.560;13.000;2023-10-09T10:43:48;100775.31;;;13.24;100.00
54270;BME280;40181;51.560;13.000;2023-10-09T10:46:50;100795.56;;;13.31;100.00
54270;BME280;40181;51.560;13.000;2023-10-09T10:49:20;100798.25;;;13.34;100.00
54270;BME280;40181;51.560;13.000;2023-10-09T10:52:02;100792.13;;;13.40;100.00
54270;BME280;40181;51.560;13.000;2023-10-09T10:54:44;100793.81;;;13.35;100.00
54270;BME280;40181;51.560;13.000;2023-10-09T10:57:35;100810.59;;;13.40;100.00
54270;BME280;40181;51.560;13.000;2023-10-09T11:00:17;100806.16;;;13.37;100.00
54270;BME280;40181;51.560;13.000;2023-10-09T11:03:01;100802.66;;;13.41;100.00
54270;BME280;40181;51.560;13.000;2023-10-09T11:06:06;100794.81;;;13.45;100.00
54270;BME280;40181;51.560;13.000;2023-10-09T11:09:09;100791.16;;;13.30;100.00
54270;BME280;40181;51.560;13.000;2023-10-09T11:11:47;100783.38;;;13.46;100.00
54270;BME280;40181;51.560;13.000;2023-10-09T11:14:20;100786.81;;;13.35;100.00
54270;BME280;40181;51.560;13.000;2023-10-09T11:16:49;100783.41;;;13.50;100.00
54270;BME280;40181;51.560;13.000;2023-10-09T11:19:26;100782.56;;;13.64;100.00
54270;BME280;40181;51.560;13.000;2023-10-09T11:22:05;100790.47;;;13.58;100.00
54270;BME280;40181;51.560;13.000;2023-10-09T11:24:49;100786.09;;;13.67;100.00
54270;BME280;40181;51.560;13.000;2023-10-09T11:27:37;100781.72;;;13.71;100.00
54270;BME280;40181;51.560;13.000;2023-10-09T11:30:06;100772.03;;;13.68;100.00
54270;BME280;40181;51.560;13.000;2023-10-09T11:32:47;100779.97;;;13.75;100.00
54270;BME280;40181;51.560;13.000;2023-10-09T11:35:28;100777.34;;;13.73;100.00
54270;BME280;40181;51.560;13.000;2023-10-09T11:38:00;100781.75;;;13.76;100.00
54270;BME280;40181;51.560;13.000;2023-10-09T11:40:46;100772.06;;;13.73;100.00
54270;BME280;40181;51.560;13.000;2023-10-09T11:43:45;100775.56;;;13.74;100.00
54270;BME280;40181;51.560;13.000;2023-10-09T11:46:23;100784.34;;;13.65;100.00
54270;BME280;40181;51.560;13.000;2023-10-09T11:49:04;100782.56;;;13.58;100.00
54270;BME280;40181;51.560;13.000;2023-10-09T11:51:56;100776.38;;;13.54;100.00
54270;BME280;40181;51.560;13.000;2023-10-09T11:54:46;100776.38;;;13.57;100.00
54270;BME280;40181;51.560;13.000;2023-10-09T11:57:15;100780.75;;;13.46;100.00
54270;BME280;40181;51.560;13.000;2023-10-09T12:00:12;100780.63;;;13.32;100.00
54270;BME280;40181;51.560;13.000;2023-10-09T12:03:27;100775.38;;;13.35;100.00
54270;BME280;40181;51.560;13.000;2023-10-09T12:06:23;100788.69;;;13.50;100.00
54270;BME280;40181;51.560;13.000;2023-10-09T12:09:32;100785.06;;;13.37;100.00
54270;BME280;40181;51.560;13.000;2023-10-09T12:12:03;100779.84;;;13.47;100.00
54270;BME280;40181;51.560;13.000;2023-10-09T12:14:53;100773.69;;;13.45;100.00
54270;BME280;40181;51.560;13.000;2023-10-09T12:18:04;100787.81;;;13.54;100.00
54270;BME280;40181;51.560;13.000;2023-10-09T12:20:52;100786.03;;;13.49;100.00
54270;BME280;40181;51.560;13.000;2023-10-09T12:23:39;100794.84;;;13.49;100.00
54270;BME280;40181;51.560;13.000;2023-10-09T12:26:16;100782.53;;;13.51;100.00
54270;BME280;40181;51.560;13.000;2023-10-09T12:28:47;100781.66;;;13.52;100.00
54270;BME280;40181;51.560;13.000;2023-10-09T12:31:20;100773.63;;;13.41;100.00
54270;BME280;40181;51.560;13.000;2023-10-09T12:33:51;100770.97;;;13.35;100.00
54270;BME280;40181;51.560;13.000;2023-10-09T12:36:22;100774.63;;;13.53;100.00
54270;BME280;40181;51.560;13.000;2023-10-09T12:39:00;100788.69;;;13.52;100.00
54270;BME280;40181;51.560;13.000;2023-10-09T12:41:45;100780.81;;;13.57;100.00
54270;BME280;40181;51.560;13.000;2023-10-09T12:44:19;100782.56;;;13.58;100.00
54270;BME280;40181;51.560;13.000;2023-10-09T12:46:48;100786.94;;;13.54;100.00
54270;BME280;40181;51.560;13.000;2023-10-09T12:49:21;100776.44;;;13.65;100.00
54270;BME280;40181;51.560;13.000;2023-10-09T12:51:53;100769.38;;;13.64;100.00
54270;BME280;40181;51.560;13.000;2023-10-09T12:54:24;100760.53;;;13.54;100.00
54270;BME280;40181;51.560;13.000;2023-10-09T12:56:58;100762.28;;;13.53;100.00
54270;BME280;40181;51.560;13.000;2023-10-09T12:59:27;100771.13;;;13.62;100.00
54270;BME280;40181;51.560;13.000;2023-10-09T13:01:56;100769.38;;;13.64;100.00
54270;BME280;40181;51.560;13.000;2023-10-09T13:04:29;100757.97;;;13.68;100.00
54270;BME280;40181;51.560;13.000;2023-10-09T13:07:00;100766.78;;;13.72;100.00
54270;BME280;40181;51.560;13.000;2023-10-09T13:09:32;100756.16;;;13.58;100.00
54270;BME280;40181;51.560;13.000;2023-10-09T13:12:10;100763.19;;;13.57;100.00
54270;BME280;40181;51.560;13.000;2023-10-09T13:14:43;100764.06;;;13.54;100.00
54270;BME280;40181;51.560;13.000;2023-10-09T13:17:15;100756.19;;;13.65;100.00
54270;BME280;40181;51.560;13.000;2023-10-09T13:19:45;100760.59;;;13.71;100.00
54270;BME280;40181;51.560;13.000;2023-10-09T13:22:14;100772.00;;;13.59;100.00
54270;BME280;40181;51.560;13.000;2023-10-09T13:24:43;100772.88;;;13.60;100.00
54270;BME280;40181;51.560;13.000;2023-10-09T13:27:16;100766.75;;;13.65;100.00
54270;BME280;40181;51.560;13.000;2023-10-09T13:29:46;100767.59;;;13.55;100.00
54270;BME280;40181;51.560;13.000;2023-10-09T13:32:17;100760.50;;;13.48;100.00
54270;BME280;40181;51.560;13.000;2023-10-09T13:34:46;100762.31;;;13.52;100.00
54270;BME280;40181;51.560;13.000;2023-10-09T13:37:15;100766.72;;;13.61;100.00
54270;BME280;40181;51.560;13.000;2023-10-09T13:39:47;100753.59;;;13.76;100.00
54270;BME280;40181;51.560;13.000;2023-10-09T13:42:24;100746.50;;;13.61;100.00
54270;BME280;40181;51.560;13.000;2023-10-09T13:44:53;100751.75;;;13.60;100.00
54270;BME280;40181;51.560;13.000;2023-10-09T13:47:22;100755.31;;;13.63;100.00
54270;BME280;40181;51.560;13.000;2023-10-09T13:49:56;100764.16;;;13.76;100.00